sensor_id;sensor_type;location;lat;lon;timestamp;pressure;altitude;pressure_sealevel;temperature;humidity
47054;BME280;32811;52.382;5.270;2023-02-28T00:00:21;103288.50;;;2.08;100.00
47054;BME280;32811;52.382;5.270;2023-02-28T00:02:48;103270.06;;;2.01;100.00
47054;BME280;32811;52.382;5.270;2023-02-28T00:05:17;103293.53;;;2.19;100.00
47054;BME280;32811;52.382;5.270;2023-02-28T00:07:45;103280.78;;;2.19;100.00
47054;BME280;32811;52.382;5.270;2023-02-28T00:10:23;103288.75;;;2.34;100.00
47054;BME280;32811;52.382;5.270;2023-02-28T00:12:51;103292.84;;;2.32;100.00
47054;BME280;32811;52.382;5.270;2023-02-28T00:15:18;103269.50;;;2.15;100.00
47054;BME280;32811;52.382;5.270;2023-02-28T00:17:45;103294.16;;;2.26;100.00
47054;BME280;32811;52.382;5.270;2023-02-28T00:20:12;103272.03;;;2.15;100.00
47054;BME280;32811;52.382;5.270;2023-02-28T00:22:44;103286.00;;;2.20;100.00
47054;BME280;32811;52.382;5.270;2023-02-28T00:25:14;103293.13;;;2.24;100.00
47054;BME280;32811;52.382;5.270;2023-02-28T00:27:41;103280.34;;;2.13;100.00
47054;BME280;32811;52.382;5.270;2023-02-28T00:30:11;103286.00;;;2.20;100.00
47054;BME280;32811;52.382;5.270;2023-02-28T00:32:38;103201.47;;;1.70;100.00
47054;BME280;32811;52.382;5.270;2023-02-28T00:35:05;103245.72;;;2.04;100.00
47054;BME280;32811;52.382;5.270;2023-02-28T00:37:33;103288.25;;;2.27;100.00
47054;BME280;32811;52.382;5.270;2023-02-28T00:40:00;103276.44;;;2.28;100.00
47054;BME280;32811;52.382;5.270;2023-02-28T00:42:27;103268.66;;;2.26;100.00
47054;BME280;32811;52.382;5.270;2023-02-28T00:44:53;103219.78;;;1.98;100.00
47054;BME280;32811;52.382;5.270;2023-02-28T00:47:20;103284.13;;;2.40;100.00
47054;BME280;32811;52.382;5.270;2023-02-28T00:49:47;103257.16;;;2.32;100.00
47054;BME280;32811;52.382;5.270;2023-02-28T00:52:13;103261.59;;;2.34;100.00
47054;BME280;32811;52.382;5.270;2023-02-28T00:54:40;103245.59;;;2.25;100.00
47054;BME280;32811;52.382;5.270;2023-02-28T00:57:07;103279.16;;;2.41;100.00
47054;BME280;32811;52.382;5.270;2023-02-28T00:59:33;103262.50;;;2.35;100.00
47054;BME280;32811;52.382;5.270;2023-02-28T01:02:00;103275.97;;;2.44;100.00
47054;BME280;32811;52.382;5.270;2023-02-28T01:04:27;103269.84;;;2.42;100.00
47054;BME280;32811;52.382;5.270;2023-02-28T01:06:53;103261.19;;;2.40;100.00
47054;BME280;32811;52.382;5.270;2023-02-28T01:09:20;103260.31;;;2.39;100.00
47054;BME280;32811;52.382;5.270;2023-02-28T01:11:46;103282.41;;;2.51;100.00
47054;BME280;32811;52.382;5.270;2023-02-28T01:14:15;103280.88;;;2.53;100.00
47054;BME280;32811;52.382;5.270;2023-02-28T01:16:43;103261.94;;;2.39;100.00
47054;BME280;32811;52.382;5.270;2023-02-28T01:19:10;103233.13;;;2.28;100.00
47054;BME280;32811;52.382;5.270;2023-02-28T01:21:37;103256.50;;;2.34;100.00
47054;BME280;32811;52.382;5.270;2023-02-28T01:24:04;103252.06;;;2.32;100.00
47054;BME280;32811;52.382;5.270;2023-02-28T01:26:31;103248.50;;;2.29;100.00
47054;BME280;32811;52.382;5.270;2023-02-28T01:28:58;103265.41;;;2.39;100.00
47054;BME280;32811;52.382;5.270;2023-02-28T01:31:25;103256.50;;;2.34;100.00
47054;BME280;32811;52.382;5.270;2023-02-28T01:33:52;103249.63;;;2.33;100.00
47054;BME280;32811;52.382;5.270;2023-02-28T01:36:22;103273.63;;;2.47;100.00
47054;BME280;32811;52.382;5.270;2023-02-28T01:38:49;103241.13;;;2.33;100.00
47054;BME280;32811;52.382;5.270;2023-02-28T01:46:14;103261.53;;;2.44;100.00
47054;BME280;32811;52.382;5.270;2023-02-28T01:48:56;103232.09;;;2.26;100.00
47054;BME280;32811;52.382;5.270;2023-02-28T01:54:00;103234.75;;;2.27;100.00
47054;BME280;32811;52.382;5.270;2023-02-28T01:56:30;103258.88;;;2.43;100.00
47054;BME280;32811;52.382;5.270;2023-02-28T01:58:58;103259.53;;;2.40;100.00
47054;BME280;32811;52.382;5.270;2023-02-28T02:01:27;103225.88;;;2.22;100.00
47054;BME280;32811;52.382;5.270;2023-02-28T02:03:57;103222.31;;;2.20;100.00
47054;BME280;32811;52.382;5.270;2023-02-28T02:06:51;103258.88;;;2.43;100.00
47054;BME280;32811;52.382;5.270;2023-02-28T02:09:17;103223.56;;;2.25;100.00
47054;BME280;32811;52.382;5.270;2023-02-28T02:11:44;103216.81;;;2.26;100.00
47054;BME280;32811;52.382;5.270;2023-02-28T02:14:22;103229.47;;;2.36;100.00
47054;BME280;32811;52.382;5.270;2023-02-28T02:22:09;103240.50;;;2.47;100.00
47054;BME280;32811;52.382;5.270;2023-02-28T02:27:48;103248.38;;;2.50;100.00
47054;BME280;32811;52.382;5.270;2023-02-28T02:37:59;103253.25;;;2.47;100.00
47054;BME280;32811;52.382;5.270;2023-02-28T02:40:47;103244.59;;;2.45;100.00
47054;BME280;32811;52.382;5.270;2023-02-28T02:45:46;103250.91;;;2.50;100.00
47054;BME280;32811;52.382;5.270;2023-02-28T02:48:17;103251.81;;;2.51;100.00
47054;BME280;32811;52.382;5.270;2023-02-28T02:50:49;103248.94;;;2.46;100.00
47054;BME280;32811;52.382;5.270;2023-02-28T02:53:19;103247.13;;;2.45;100.00
47054;BME280;32811;52.382;5.270;2023-02-28T02:55:51;103232.38;;;2.41;100.00
47054;BME280;32811;52.382;5.270;2023-02-28T02:58:26;103243.91;;;2.47;100.00
47054;BME280;32811;52.382;5.270;2023-02-28T03:00:58;103243.91;;;2.47;100.00
47054;BME280;32811;52.382;5.270;2023-02-28T03:03:28;103237.72;;;2.44;100.00
47054;BME280;32811;52.382;5.270;2023-02-28T03:05:57;103244.59;;;2.45;100.00
47054;BME280;32811;52.382;5.270;2023-02-28T03:08:25;103232.03;;;2.36;100.00
47054;BME280;32811;52.382;5.270;2023-02-28T03:10:58;103242.91;;;2.45;100.00
47054;BME280;32811;52.382;5.270;2023-02-28T03:14:02;103184.41;;;2.13;100.00
47054;BME280;32811;52.382;5.270;2023-02-28T03:27:09;103226.75;;;2.45;100.00
47054;BME280;32811;52.382;5.270;2023-02-28T03:29:42;103218.53;;;2.37;100.00
47054;BME280;32811;52.382;5.270;2023-02-28T03:32:13;103227.97;;;2.50;100.00
47054;BME280;32811;52.382;5.270;2023-02-28T03:34:55;103215.19;;;2.38;100.00
47054;BME280;32811;52.382;5.270;2023-02-28T03:37:25;103213.09;;;2.33;100.00
47054;BME280;32811;52.382;5.270;2023-02-28T03:40:08;103237.81;;;2.45;100.00
47054;BME280;32811;52.382;5.270;2023-02-28T03:42:42;103248.94;;;2.46;100.00
47054;BME280;32811;52.382;5.270;2023-02-28T03:45:17;103243.47;;;2.41;100.00
47054;BME280;32811;52.382;5.270;2023-02-28T03:50:20;103251.88;;;2.40;100.00
47054;BME280;32811;52.382;5.270;2023-02-28T03:53:18;103258.22;;;2.45;100.00
47054;BME280;32811;52.382;5.270;2023-02-28T03:55:54;103242.13;;;2.35;100.00
47054;BME280;32811;52.382;5.270;2023-02-28T03:58:31;103256.66;;;2.47;100.00
47054;BME280;32811;52.382;5.270;2023-02-28T04:01:09;103257.59;;;2.48;100.00
47054;BME280;32811;52.382;5.270;2023-02-28T04:03:38;103251.34;;;2.44;100.00
47054;BME280;32811;52.382;5.270;2023-02-28T04:06:07;103264.56;;;2.51;100.00
47054;BME280;32811;52.382;5.270;2023-02-28T04:08:41;103255.25;;;2.51;100.00
47054;BME280;32811;52.382;5.270;2023-02-28T04:11:17;103218.19;;;2.33;100.00
47054;BME280;32811;52.382;5.270;2023-02-28T04:13:45;103253.47;;;2.50;100.00
47054;BME280;32811;52.382;5.270;2023-02-28T04:16:13;103231.28;;;2.37;100.00
47054;BME280;32811;52.382;5.270;2023-02-28T04:18:57;103249.69;;;2.45;100.00
47054;BME280;32811;52.382;5.270;2023-02-28T04:21:29;103247.78;;;2.42;100.00
47054;BME280;32811;52.382;5.270;2023-02-28T04:23:57;103252.47;;;2.48;100.00
47054;BME280;32811;52.382;5.270;2023-02-28T04:26:33;103249.59;;;2.43;100.00
47054;BME280;32811;52.382;5.270;2023-02-28T04:29:00;103251.22;;;2.43;100.00
47054;BME280;32811;52.382;5.270;2023-02-28T04:31:27;103243.34;;;2.40;100.00
47054;BME280;32811;52.382;5.270;2023-02-28T04:33:55;103250.88;;;2.38;100.00
47054;BME280;32811;52.382;5.270;2023-02-28T04:36:21;103237.31;;;2.27;100.00
47054;BME280;32811;52.382;5.270;2023-02-28T04:38:49;103234.75;;;2.27;100.00
47054;BME280;32811;52.382;5.270;2023-02-28T04:41:16;103242.88;;;2.34;100.00
47054;BME280;32811;52.382;5.270;2023-02-28T04:43:43;103235.41;;;2.25;100.00
47054;BME280;32811;52.382;5.270;2023-02-28T04:46:10;103217.41;;;2.12;100.00
47054;BME280;32811;52.382;5.270;2023-02-28T04:48:38;103246.13;;;2.21;100.00
47054;BME280;32811;52.382;5.270;2023-02-28T04:51:09;103234.22;;;2.10;100.00
47054;BME280;32811;52.382;5.270;2023-02-28T04:53:37;103245.44;;;2.12;100.00
47054;BME280;32811;52.382;5.270;2023-02-28T04:56:06;103244.31;;;2.08;100.00
47054;BME280;32811;52.382;5.270;2023-02-28T04:58:33;103239.97;;;2.07;100.00
47054;BME280;32811;52.382;5.270;2023-02-28T05:01:05;103227.84;;;1.93;100.00
47054;BME280;32811;52.382;5.270;2023-02-28T05:03:39;103242.03;;;2.01;100.00
47054;BME280;32811;52.382;5.270;2023-02-28T05:06:09;103238.75;;;2.02;100.00
47054;BME280;32811;52.382;5.270;2023-02-28T05:08:36;103242.69;;;1.98;100.00
47054;BME280;32811;52.382;5.270;2023-02-28T05:11:05;103243.34;;;1.96;100.00
47054;BME280;32811;52.382;5.270;2023-02-28T05:13:32;103249.44;;;1.98;100.00
47054;BME280;32811;52.382;5.270;2023-02-28T05:15:59;103253.41;;;1.94;100.00
47054;BME280;32811;52.382;5.270;2023-02-28T05:18:26;103250.28;;;1.86;100.00
47054;BME280;32811;52.382;5.270;2023-02-28T05:20:52;103250.03;;;1.83;100.00
47054;BME280;32811;52.382;5.270;2023-02-28T05:23:22;103246.56;;;1.83;100.00
47054;BME280;32811;52.382;5.270;2023-02-28T05:25:49;103240.91;;;1.75;100.00
47054;BME280;32811;52.382;5.270;2023-02-28T05:28:16;103244.97;;;1.73;100.00
47054;BME280;32811;52.382;5.270;2023-02-28T05:30:42;103249.56;;;1.77;100.00
47054;BME280;32811;52.382;5.270;2023-02-28T05:33:11;103252.63;;;1.73;100.00
47054;BME280;32811;52.382;5.270;2023-02-28T05:35:41;103234.19;;;1.65;100.00
47054;BME280;32811;52.382;5.270;2023-02-28T05:38:11;103249.06;;;1.71;100.00
47054;BME280;32811;52.382;5.270;2023-02-28T05:40:38;103250.59;;;1.69;100.00
47054;BME280;32811;52.382;5.270;2023-02-28T05:43:09;103231.53;;;1.54;100.00
47054;BME280;32811;52.382;5.270;2023-02-28T05:45:36;103256.47;;;1.58;100.00
47054;BME280;32811;52.382;5.270;2023-02-28T05:48:03;103252.03;;;1.55;100.00
47054;BME280;32811;52.382;5.270;2023-02-28T05:50:29;103255.72;;;1.59;100.00
47054;BME280;32811;52.382;5.270;2023-02-28T05:52:56;103251.25;;;1.56;100.00
47054;BME280;32811;52.382;5.270;2023-02-28T05:55:23;103254.06;;;1.59;100.00
47054;BME280;32811;52.382;5.270;2023-02-28T05:57:49;103263.97;;;1.56;100.00
47054;BME280;32811;52.382;5.270;2023-02-28T06:00:16;103266.53;;;1.56;100.00
47054;BME280;32811;52.382;5.270;2023-02-28T06:02:44;103249.28;;;1.32;100.00
47054;BME280;32811;52.382;5.270;2023-02-28T06:05:14;103273.63;;;1.28;100.00
47054;BME280;32811;52.382;5.270;2023-02-28T06:07:41;103269.31;;;1.07;100.00
47054;BME280;32811;52.382;5.270;2023-02-28T06:10:08;103274.28;;;0.95;100.00
47054;BME280;32811;52.382;5.270;2023-02-28T06:12:36;103280.88;;;0.93;100.00
47054;BME280;32811;52.382;5.270;2023-02-28T06:15:06;103270.47;;;0.79;100.00
47054;BME280;32811;52.382;5.270;2023-02-28T06:17:33;103268.03;;;0.71;100.00
47054;BME280;32811;52.382;5.270;2023-02-28T06:20:00;103285.97;;;0.72;100.00
47054;BME280;32811;52.382;5.270;2023-02-28T06:22:26;103271.84;;;0.66;100.00
47054;BME280;32811;52.382;5.270;2023-02-28T06:24:53;103248.94;;;0.35;100.00
47054;BME280;32811;52.382;5.270;2023-02-28T06:27:35;103258.34;;;0.36;100.00
47054;BME280;32811;52.382;5.270;2023-02-28T06:30:15;103226.38;;;0.09;100.00
47054;BME280;32811;52.382;5.270;2023-02-28T06:32:47;103290.22;;;0.32;100.00
47054;BME280;32811;52.382;5.270;2023-02-28T06:35:30;103235.50;;;-0.04;100.00
47054;BME280;32811;52.382;5.270;2023-02-28T06:38:08;103274.69;;;0.19;100.00
47054;BME280;32811;52.382;5.270;2023-02-28T06:40:55;103258.25;;;0.05;100.00
47054;BME280;32811;52.382;5.270;2023-02-28T06:43:42;103271.34;;;0.10;100.00
47054;BME280;32811;52.382;5.270;2023-02-28T06:46:16;103286.19;;;0.05;100.00
47054;BME280;32811;52.382;5.270;2023-02-28T06:48:44;103288.75;;;0.15;100.00
47054;BME280;32811;52.382;5.270;2023-02-28T06:51:13;103302.47;;;0.17;100.00
47054;BME280;32811;52.382;5.270;2023-02-28T06:53:40;103309.84;;;0.14;100.00
47054;BME280;32811;52.382;5.270;2023-02-28T06:56:11;103314.53;;;0.10;100.00
47054;BME280;32811;52.382;5.270;2023-02-28T06:58:39;103306.50;;;0.05;100.00
47054;BME280;32811;52.382;5.270;2023-02-28T07:01:06;103307.97;;;-0.07;100.00
47054;BME280;32811;52.382;5.270;2023-02-28T07:03:38;103274.13;;;-0.27;100.00
47054;BME280;32811;52.382;5.270;2023-02-28T07:06:05;103323.75;;;-0.01;100.00
47054;BME280;32811;52.382;5.270;2023-02-28T07:08:33;103294.69;;;-0.24;100.00
47054;BME280;32811;52.382;5.270;2023-02-28T07:11:00;103323.09;;;-0.09;100.00
47054;BME280;32811;52.382;5.270;2023-02-28T07:13:27;103324.69;;;-0.09;100.00
47054;BME280;32811;52.382;5.270;2023-02-28T07:16:00;103322.47;;;-0.06;100.00
47054;BME280;32811;52.382;5.270;2023-02-28T07:18:27;103322.53;;;-0.15;100.00
47054;BME280;32811;52.382;5.270;2023-02-28T07:20:54;103330.69;;;-0.09;100.00
47054;BME280;32811;52.382;5.270;2023-02-28T07:23:21;103335.63;;;-0.10;100.00
47054;BME280;32811;52.382;5.270;2023-02-28T07:25:49;103332.59;;;-0.06;100.00
47054;BME280;32811;52.382;5.270;2023-02-28T07:28:16;103335.63;;;-0.10;100.00
47054;BME280;32811;52.382;5.270;2023-02-28T07:30:43;103334.38;;;-0.05;100.00
47054;BME280;32811;52.382;5.270;2023-02-28T07:33:10;103326.75;;;-0.05;100.00
47054;BME280;32811;52.382;5.270;2023-02-28T07:35:36;103334.44;;;0.05;100.00
47054;BME280;32811;52.382;5.270;2023-02-28T07:38:03;103324.00;;;0.02;100.00
47054;BME280;32811;52.382;5.270;2023-02-28T07:40:30;103321.13;;;0.08;100.00
47054;BME280;32811;52.382;5.270;2023-02-28T07:42:59;103335.38;;;0.16;100.00
47054;BME280;32811;52.382;5.270;2023-02-28T07:45:27;103335.22;;;0.14;100.00
47054;BME280;32811;52.382;5.270;2023-02-28T07:47:55;103333.34;;;0.22;100.00
47054;BME280;32811;52.382;5.270;2023-02-28T07:50:22;103315.94;;;0.16;100.00
47054;BME280;32811;52.382;5.270;2023-02-28T07:52:51;103320.31;;;0.28;100.00
47054;BME280;32811;52.382;5.270;2023-02-28T07:55:18;103328.72;;;0.37;100.00
47054;BME280;32811;52.382;5.270;2023-02-28T07:57:44;103318.19;;;0.43;100.00
47054;BME280;32811;52.382;5.270;2023-02-28T08:00:11;103315.22;;;0.38;100.00
47054;BME280;32811;52.382;5.270;2023-02-28T08:02:39;103315.03;;;0.45;100.00
47054;BME280;32811;52.382;5.270;2023-02-28T08:05:06;103310.34;;;0.50;100.00
47054;BME280;32811;52.382;5.270;2023-02-28T08:07:33;103320.88;;;0.54;100.00
47054;BME280;32811;52.382;5.270;2023-02-28T08:10:02;103317.56;;;0.55;100.00
47054;BME280;32811;52.382;5.270;2023-02-28T08:12:29;103314.53;;;0.59;100.00
47054;BME280;32811;52.382;5.270;2023-02-28T08:14:55;103311.50;;;0.64;100.00
47054;BME280;32811;52.382;5.270;2023-02-28T08:17:22;103316.44;;;0.62;100.00
47054;BME280;32811;52.382;5.270;2023-02-28T08:19:49;103305.25;;;0.60;100.00
47054;BME280;32811;52.382;5.270;2023-02-28T08:22:15;103306.66;;;0.67;100.00
47054;BME280;32811;52.382;5.270;2023-02-28T08:24:42;103328.69;;;0.76;100.00
47054;BME280;32811;52.382;5.270;2023-02-28T08:27:09;103314.31;;;0.77;100.00
47054;BME280;32811;52.382;5.270;2023-02-28T08:29:37;103310.25;;;0.79;100.00
47054;BME280;32811;52.382;5.270;2023-02-28T08:32:05;103328.44;;;0.83;100.00
47054;BME280;32811;52.382;5.270;2023-02-28T08:34:51;103318.25;;;0.83;100.00
47054;BME280;32811;52.382;5.270;2023-02-28T08:37:25;103322.22;;;0.90;100.00
47054;BME280;32811;52.382;5.270;2023-02-28T08:39:51;103320.53;;;0.91;100.00
47054;BME280;32811;52.382;5.270;2023-02-28T08:42:42;103330.59;;;0.99;100.00
47054;BME280;32811;52.382;5.270;2023-02-28T08:45:09;103317.50;;;0.95;100.00
47054;BME280;32811;52.382;5.270;2023-02-28T08:47:36;103325.75;;;1.02;100.00
47054;BME280;32811;52.382;5.270;2023-02-28T08:50:04;103314.47;;;0.99;100.00
47054;BME280;32811;52.382;5.270;2023-02-28T08:52:30;103303.16;;;1.06;100.00
47054;BME280;32811;52.382;5.270;2023-02-28T08:54:57;103316.75;;;1.16;100.00
47054;BME280;32811;52.382;5.270;2023-02-28T08:57:24;103326.03;;;1.26;100.00
47054;BME280;32811;52.382;5.270;2023-02-28T08:59:52;103325.25;;;1.27;100.00
47054;BME280;32811;52.382;5.270;2023-02-28T09:02:19;103315.44;;;1.32;100.00
47054;BME280;32811;52.382;5.270;2023-02-28T09:04:45;103324.31;;;1.47;100.00
47054;BME280;32811;52.382;5.270;2023-02-28T09:07:12;103316.47;;;1.44;100.00
47054;BME280;32811;52.382;5.270;2023-02-28T09:09:39;103331.81;;;1.56;100.00
47054;BME280;32811;52.382;5.270;2023-02-28T09:12:21;103346.81;;;1.63;100.00
47054;BME280;32811;52.382;5.270;2023-02-28T09:14:48;103340.75;;;1.61;100.00
47054;BME280;32811;52.382;5.270;2023-02-28T09:17:15;103345.06;;;1.62;100.00
47054;BME280;32811;52.382;5.270;2023-02-28T09:19:42;103352.41;;;1.69;100.00
47054;BME280;32811;52.382;5.270;2023-02-28T09:22:10;103343.91;;;1.69;100.00
47054;BME280;32811;52.382;5.270;2023-02-28T09:24:37;103343.75;;;1.77;100.00
47054;BME280;32811;52.382;5.270;2023-02-28T09:27:09;103345.53;;;1.78;100.00
47054;BME280;32811;52.382;5.270;2023-02-28T09:29:36;103331.53;;;1.83;100.00
47054;BME280;32811;52.382;5.270;2023-02-28T09:32:03;103340.00;;;1.94;100.00
47054;BME280;32811;52.382;5.270;2023-02-28T09:34:32;103335.75;;;2.05;100.00
47054;BME280;32811;52.382;5.270;2023-02-28T09:36:59;103349.72;;;2.20;100.00
47054;BME280;32811;52.382;5.270;2023-02-28T09:39:26;103345.59;;;2.33;100.00
47054;BME280;32811;52.382;5.270;2023-02-28T09:41:54;103338.47;;;2.28;100.00
47054;BME280;32811;52.382;5.270;2023-02-28T09:44:31;103348.38;;;2.36;100.00
47054;BME280;32811;52.382;5.270;2023-02-28T09:47:42;103343.31;;;2.25;100.00
47054;BME280;32811;52.382;5.270;2023-02-28T09:52:50;103327.47;;;2.07;100.00
47054;BME280;32811;52.382;5.270;2023-02-28T09:55:37;103335.44;;;1.90;100.00
47054;BME280;32811;52.382;5.270;2023-02-28T09:58:26;103326.66;;;1.97;100.00
47054;BME280;32811;52.382;5.270;2023-02-28T10:01:03;103343.16;;;2.12;100.00
47054;BME280;32811;52.382;5.270;2023-02-28T10:03:39;103336.28;;;2.33;100.00
47054;BME280;32811;52.382;5.270;2023-02-28T10:06:46;103273.00;;;2.05;100.00
47054;BME280;32811;52.382;5.270;2023-02-28T10:09:22;103343.59;;;2.73;100.00
47054;BME280;32811;52.382;5.270;2023-02-28T10:11:52;103336.94;;;2.75;100.00
47054;BME280;32811;52.382;5.270;2023-02-28T10:14:25;103333.84;;;2.79;100.00
47054;BME280;32811;52.382;5.270;2023-02-28T10:17:23;103347.91;;;3.07;100.00
47054;BME280;32811;52.382;5.270;2023-02-28T10:20:02;103344.47;;;3.07;100.00
47054;BME280;32811;52.382;5.270;2023-02-28T10:25:47;103345.63;;;3.22;100.00
47054;BME280;32811;52.382;5.270;2023-02-28T10:28:17;103339.66;;;3.22;100.00
47054;BME280;32811;52.382;5.270;2023-02-28T10:30:50;103334.75;;;3.25;100.00
47054;BME280;32811;52.382;5.270;2023-02-28T10:33:44;103332.91;;;3.46;100.00
47054;BME280;32811;52.382;5.270;2023-02-28T10:36:17;103337.00;;;3.44;100.00
47054;BME280;32811;52.382;5.270;2023-02-28T10:38:45;103330.72;;;3.62;100.00
47054;BME280;32811;52.382;5.270;2023-02-28T10:41:31;103337.38;;;3.60;100.00
47054;BME280;32811;52.382;5.270;2023-02-28T10:44:22;103333.72;;;3.68;100.00
47054;BME280;32811;52.382;5.270;2023-02-28T10:46:50;103331.59;;;3.74;100.00
47054;BME280;32811;52.382;5.270;2023-02-28T10:49:26;103316.72;;;3.69;100.00
47054;BME280;32811;52.382;5.270;2023-02-28T10:51:59;103321.72;;;3.67;100.00
47054;BME280;32811;52.382;5.270;2023-02-28T10:54:32;103324.06;;;3.64;100.00
47054;BME280;32811;52.382;5.270;2023-02-28T10:57:18;103329.81;;;3.85;100.00
47054;BME280;32811;52.382;5.270;2023-02-28T10:59:45;103323.03;;;3.86;100.00
47054;BME280;32811;52.382;5.270;2023-02-28T11:02:32;103286.94;;;3.69;100.00
47054;BME280;32811;52.382;5.270;2023-02-28T11:05:25;103310.66;;;4.04;100.00
47054;BME280;32811;52.382;5.270;2023-02-28T11:07:53;103305.00;;;4.08;100.00
47054;BME280;32811;52.382;5.270;2023-02-28T11:10:25;103301.16;;;4.26;100.00
47054;BME280;32811;52.382;5.270;2023-02-28T11:12:56;103307.28;;;4.28;100.00
47054;BME280;32811;52.382;5.270;2023-02-28T11:15:29;103307.91;;;4.37;100.00
47054;BME280;32811;52.382;5.270;2023-02-28T11:20:38;103308.47;;;4.45;100.00
47054;BME280;32811;52.382;5.270;2023-02-28T11:23:12;103288.63;;;4.54;100.00
47054;BME280;32811;52.382;5.270;2023-02-28T11:25:50;103264.56;;;4.64;100.00
47054;BME280;32811;52.382;5.270;2023-02-28T11:28:29;103293.75;;;5.05;100.00
47054;BME280;32811;52.382;5.270;2023-02-28T11:33:53;103287.28;;;4.85;100.00
47054;BME280;32811;52.382;5.270;2023-02-28T11:36:30;103277.78;;;4.70;100.00
47054;BME280;32811;52.382;5.270;2023-02-28T11:39:07;103280.97;;;4.54;100.00
47054;BME280;32811;52.382;5.270;2023-02-28T11:47:12;103272.91;;;4.36;100.00
47054;BME280;32811;52.382;5.270;2023-02-28T11:50:08;103278.97;;;4.50;100.00
47054;BME280;32811;52.382;5.270;2023-02-28T11:52:47;103279.59;;;4.34;100.00
47054;BME280;32811;52.382;5.270;2023-02-28T11:55:30;103259.88;;;4.45;100.00
47054;BME280;32811;52.382;5.270;2023-02-28T12:11:49;103248.91;;;4.60;100.00
47054;BME280;32811;52.382;5.270;2023-02-28T12:19:47;103253.94;;;4.58;91.29
47054;BME280;32811;52.382;5.270;2023-02-28T12:28:17;103249.06;;;4.74;79.62
47054;BME280;32811;52.382;5.270;2023-02-28T12:31:06;103238.69;;;4.85;91.66
47054;BME280;32811;52.382;5.270;2023-02-28T12:33:40;103237.09;;;4.87;81.35
47054;BME280;32811;52.382;5.270;2023-02-28T12:36:11;103235.13;;;4.83;73.41
47054;BME280;32811;52.382;5.270;2023-02-28T12:38:47;103234.63;;;4.88;77.57
47054;BME280;32811;52.382;5.270;2023-02-28T12:44:11;103240.84;;;4.92;80.46
47054;BME280;32811;52.382;5.270;2023-02-28T12:46:42;103234.84;;;4.91;67.06
47054;BME280;32811;52.382;5.270;2023-02-28T12:49:16;103225.28;;;4.89;66.49
47054;BME280;32811;52.382;5.270;2023-02-28T12:51:44;103229.53;;;5.02;69.69
47054;BME280;32811;52.382;5.270;2023-02-28T12:56:50;103227.53;;;4.97;68.35
47054;BME280;32811;52.382;5.270;2023-02-28T12:59:34;103228.25;;;5.08;65.49
47054;BME280;32811;52.382;5.270;2023-02-28T13:02:40;103230.53;;;5.04;63.92
47054;BME280;32811;52.382;5.270;2023-02-28T13:10:43;103217.84;;;5.05;68.76
47054;BME280;32811;52.382;5.270;2023-02-28T13:13:18;103226.50;;;5.20;67.45
47054;BME280;32811;52.382;5.270;2023-02-28T13:16:06;103217.84;;;5.18;71.22
47054;BME280;32811;52.382;5.270;2023-02-28T13:18:46;103202.78;;;5.10;74.28
47054;BME280;32811;52.382;5.270;2023-02-28T13:21:27;103217.03;;;5.06;64.76
47054;BME280;32811;52.382;5.270;2023-02-28T13:23:59;103205.44;;;5.11;59.62
47054;BME280;32811;52.382;5.270;2023-02-28T13:34:44;103209.56;;;5.23;62.81
47054;BME280;32811;52.382;5.270;2023-02-28T13:39:58;103196.56;;;5.19;60.37
47054;BME280;32811;52.382;5.270;2023-02-28T13:47:51;103200.22;;;5.23;93.50
47054;BME280;32811;52.382;5.270;2023-02-28T14:07:27;103182.88;;;5.06;100.00
47054;BME280;32811;52.382;5.270;2023-02-28T14:10:04;103170.94;;;4.93;100.00
47054;BME280;32811;52.382;5.270;2023-02-28T14:18:13;103172.81;;;4.95;100.00
47054;BME280;32811;52.382;5.270;2023-02-28T14:20:42;103178.25;;;4.87;100.00
47054;BME280;32811;52.382;5.270;2023-02-28T14:23:45;103173.31;;;4.90;100.00
47054;BME280;32811;52.382;5.270;2023-02-28T14:26:33;103182.41;;;4.98;100.00
47054;BME280;32811;52.382;5.270;2023-02-28T14:31:44;103173.91;;;4.99;100.00
47054;BME280;32811;52.382;5.270;2023-02-28T14:37:01;103174.09;;;5.02;100.00
47054;BME280;32811;52.382;5.270;2023-02-28T14:39:30;103166.34;;;5.01;100.00
47054;BME280;32811;52.382;5.270;2023-02-28T14:41:57;103165.25;;;4.84;100.00
47054;BME280;32811;52.382;5.270;2023-02-28T14:44:31;103153.00;;;4.66;100.00
47054;BME280;32811;52.382;5.270;2023-02-28T14:47:02;103173.63;;;4.94;100.00
47054;BME280;32811;52.382;5.270;2023-02-28T14:49:44;103160.72;;;4.93;100.00
47054;BME280;32811;52.382;5.270;2023-02-28T14:54:44;103158.13;;;4.79;100.00
47054;BME280;32811;52.382;5.270;2023-02-28T14:57:28;103154.53;;;4.89;100.00
47054;BME280;32811;52.382;5.270;2023-02-28T15:02:42;103170.06;;;5.06;92.21
47054;BME280;32811;52.382;5.270;2023-02-28T15:07:45;103156.00;;;5.12;67.43
47054;BME280;32811;52.382;5.270;2023-02-28T15:10:24;103168.00;;;5.27;63.46
47054;BME280;32811;52.382;5.270;2023-02-28T15:12:58;103171.53;;;5.15;61.88
47054;BME280;32811;52.382;5.270;2023-02-28T15:18:43;103153.72;;;5.17;59.60
47054;BME280;32811;52.382;5.270;2023-02-28T15:21:14;103165.16;;;5.09;64.02
47054;BME280;32811;52.382;5.270;2023-02-28T15:23:48;103158.56;;;4.99;64.70
47054;BME280;32811;52.382;5.270;2023-02-28T15:26:21;103175.88;;;5.16;61.94
47054;BME280;32811;52.382;5.270;2023-02-28T15:28:57;103170.47;;;5.12;62.90
47054;BME280;32811;52.382;5.270;2023-02-28T15:31:32;103164.47;;;5.11;62.84
47054;BME280;32811;52.382;5.270;2023-02-28T15:37:28;103163.78;;;5.01;63.40
47054;BME280;32811;52.382;5.270;2023-02-28T15:40:03;103172.34;;;5.01;65.42
47054;BME280;32811;52.382;5.270;2023-02-28T15:42:31;103165.94;;;4.94;80.27
47054;BME280;32811;52.382;5.270;2023-02-28T15:44:58;103162.22;;;4.89;100.00